Time;durP1;ratioP1;P1;durP2;ratioP2;P2;SDS_P1;SDS_P2;PMS_P1;PMS_P2;Temp;Humidity;BMP_temperature;BMP_pressure;BME280_temperature;BME280_humidity;BME280_pressure;Samples;Min_cycle;Max_cycle;Signal;HPM_P1;HPM_P2
2022/11/04 00:00:44;;;;;;;;;;;;;;;10.27;78.01;96924.78;4923027;29;19927;-57
2022/11/04 00:03:32;;;;;;;;;;;;;;;10.32;77.70;96930.00;4913934;29;19953;-58
2022/11/04 00:06:20;;;;;;;;;;;;;;;10.30;77.79;96929.56;4929232;28;19927;-58
2022/11/04 00:08:49;;;;;;;;;;;;;;;10.31;77.90;96935.78;4933896;29;20021;-58
2022/11/04 00:14:03;;;;;;;;;;;;;;;10.28;78.54;96942.69;4930977;29;20007;-58
2022/11/04 00:19:17;;;;;;;;;;;;;;;10.28;79.21;96953.53;4929255;29;19933;-57
2022/11/04 00:30:27;;;;;;;;;;;;;;;10.25;79.69;96959.63;4934183;29;19926;-58
2022/11/04 00:35:48;;;;;;;;;;;;;;;10.29;79.34;96959.75;4931531;29;21561;-59
2022/11/04 00:38:16;;;;;;;;;;;;;;;10.25;80.05;96954.19;4933974;29;20292;-57
2022/11/04 00:40:44;;;;;;;;;;;;;;;10.30;79.83;96973.00;4934988;29;19935;-57
2022/11/04 00:43:14;;;;;;;;;;;;;;;10.32;80.02;96980.81;4934591;29;20021;-58
2022/11/04 00:45:42;;;;;;;;;;;;;;;10.31;79.80;96980.00;4934051;29;19961;-58
2022/11/04 00:51:04;;;;;;;;;;;;;;;10.28;80.33;96977.97;4926916;29;19927;-58
2022/11/04 00:53:32;;;;;;;;;;;;;;;10.34;79.86;96973.94;4931761;29;19935;-58
2022/11/04 00:56:00;;;;;;;;;;;;;;;10.32;80.56;96968.00;4932937;29;19927;-58
2022/11/04 00:58:28;;;;;;;;;;;;;;;10.39;80.57;96965.59;4933919;29;19926;-58
2022/11/04 01:00:58;;;;;;;;;;;;;;;10.39;80.75;96968.28;4935459;29;19926;-58
2022/11/04 01:03:27;;;;;;;;;;;;;;;10.36;81.28;96971.66;4934012;29;19934;-58
2022/11/04 01:05:57;;;;;;;;;;;;;;;10.33;81.35;96956.03;4934752;29;19934;-58
2022/11/04 01:08:25;;;;;;;;;;;;;;;10.36;81.39;96960.00;4931131;29;19933;-57
2022/11/04 01:10:53;;;;;;;;;;;;;;;10.38;81.02;96961.25;4948217;28;19962;-57
2022/11/04 01:13:21;;;;;;;;;;;;;;;10.34;81.27;96965.78;4926720;29;20332;-58
2022/11/04 01:15:48;;;;;;;;;;;;;;;10.34;81.36;96973.94;4924026;29;19927;-57
2022/11/04 01:18:16;;;;;;;;;;;;;;;10.32;81.07;96949.00;4927148;29;19927;-57
2022/11/04 01:20:50;;;;;;;;;;;;;;;10.33;81.44;96949.81;4928256;29;19942;-57
2022/11/04 01:23:18;;;;;;;;;;;;;;;10.34;81.90;96944.06;4931962;29;20021;-57
2022/11/04 01:25:46;;;;;;;;;;;;;;;10.32;82.07;96951.72;4934092;29;19934;-57
2022/11/04 01:28:14;;;;;;;;;;;;;;;10.32;81.90;96949.00;4934308;29;19927;-57
2022/11/04 01:30:42;;;;;;;;;;;;;;;10.38;81.43;96968.59;4931465;29;20288;-58
2022/11/04 01:33:10;;;;;;;;;;;;;;;10.31;82.07;96958.28;4934913;29;19926;-57
2022/11/04 01:35:39;;;;;;;;;;;;;;;10.31;82.21;96979.22;4933421;29;19965;-57
2022/11/04 01:38:08;;;;;;;;;;;;;;;10.33;81.98;96980.47;4934424;29;20386;-57
2022/11/04 01:40:37;;;;;;;;;;;;;;;10.28;82.72;96990.72;4932627;29;20344;-57
2022/11/04 01:43:30;;;;;;;;;;;;;;;10.32;82.29;96987.03;4948479;29;19931;-57
2022/11/04 01:46:23;;;;;;;;;;;;;;;10.44;81.71;96987.09;4933137;29;19990;-58
2022/11/04 01:48:52;;;;;;;;;;;;;;;10.28;82.54;97002.41;4931253;29;20029;-58
2022/11/04 01:51:20;;;;;;;;;;;;;;;10.27;82.37;97006.22;4922258;29;20030;-58
2022/11/04 01:53:50;;;;;;;;;;;;;;;10.31;81.99;97015.31;4935203;29;19931;-57
2022/11/04 01:56:19;;;;;;;;;;;;;;;10.27;82.27;97021.72;4940548;29;19930;-57
2022/11/04 01:58:49;;;;;;;;;;;;;;;10.27;82.18;97036.09;4935026;29;19969;-57
2022/11/04 02:01:17;;;;;;;;;;;;;;;10.32;81.56;97035.09;4928076;29;20497;-57
2022/11/04 02:03:46;;;;;;;;;;;;;;;10.33;81.08;97040.19;4935176;29;20138;-57
2022/11/04 02:06:13;;;;;;;;;;;;;;;10.40;80.58;97032.34;4936537;29;19931;-57
2022/11/04 02:08:42;;;;;;;;;;;;;;;10.32;80.71;97029.66;4938015;29;19937;-57
2022/11/04 02:12:48;;;;;;;;;;;;;;;10.34;80.74;97032.88;4931804;29;20315;-57
2022/11/04 02:13:58;;;;;;;;;;;;;;;10.35;79.86;97039.88;4928110;29;19927;-58
2022/11/04 02:16:28;;;;;;;;;;;;;;;10.31;79.59;97034.31;4936861;29;20376;-58
2022/11/04 02:18:58;;;;;;;;;;;;;;;10.36;79.17;97042.25;4930614;29;19927;-57
2022/11/04 02:21:37;;;;;;;;;;;;;;;10.25;79.13;97051.13;4931973;29;19983;-57
2022/11/04 02:24:13;;;;;;;;;;;;;;;10.25;78.90;97060.06;4937417;29;19970;-57
2022/11/04 02:27:08;;;;;;;;;;;;;;;10.28;78.87;97055.88;4932412;29;20022;-57
2022/11/04 02:29:45;;;;;;;;;;;;;;;10.22;78.27;97057.97;4931272;29;20265;-58
2022/11/04 02:32:16;;;;;;;;;;;;;;;10.22;78.56;97063.41;4936883;29;19970;-57
2022/11/04 02:34:48;;;;;;;;;;;;;;;10.23;78.29;97063.13;4937019;29;20368;-57
2022/11/04 02:37:18;;;;;;;;;;;;;;;10.23;78.50;97068.53;4933486;29;19930;-57
2022/11/04 02:39:49;;;;;;;;;;;;;;;10.26;78.37;97064.38;4934982;29;19931;-58
2022/11/04 02:42:42;;;;;;;;;;;;;;;10.27;77.96;97055.09;4936720;29;19987;-57
2022/11/04 02:45:14;;;;;;;;;;;;;;;10.32;77.53;97052.19;4934936;29;19968;-58
2022/11/04 02:47:43;;;;;;;;;;;;;;;10.34;77.41;97047.22;4932608;28;20021;-57
2022/11/04 02:50:12;;;;;;;;;;;;;;;10.26;78.49;97039.94;4931407;29;19942;-57
2022/11/04 02:52:42;;;;;;;;;;;;;;;10.29;78.22;97046.63;4931794;29;20336;-58
2022/11/04 02:55:16;;;;;;;;;;;;;;;10.26;77.74;97042.66;4962935;28;20017;-58
2022/11/04 02:57:45;;;;;;;;;;;;;;;10.27;77.52;97038.81;4935773;29;19949;-57
2022/11/04 03:00:15;;;;;;;;;;;;;;;10.27;77.38;97032.56;4935352;29;19934;-57
2022/11/04 03:02:44;;;;;;;;;;;;;;;10.21;78.11;97026.53;4935692;29;20401;-58
2022/11/04 03:05:14;;;;;;;;;;;;;;;10.20;77.87;97014.06;4934112;29;19966;-57
2022/11/04 03:07:44;;;;;;;;;;;;;;;10.21;78.31;97010.22;4935907;29;19974;-58
2022/11/04 03:10:14;;;;;;;;;;;;;;;10.24;77.50;97012.34;4930570;29;20404;-57
2022/11/04 03:12:44;;;;;;;;;;;;;;;10.27;77.55;97011.66;4935895;29;19934;-57
2022/11/04 03:15:13;;;;;;;;;;;;;;;10.23;78.18;97021.56;4933556;29;19931;-57
2022/11/04 03:17:49;;;;;;;;;;;;;;;10.21;78.05;97034.66;4930353;29;19949;-58
2022/11/04 03:20:18;;;;;;;;;;;;;;;10.18;78.43;97038.06;4935700;29;19935;-57
2022/11/04 03:22:47;;;;;;;;;;;;;;;10.20;78.39;97044.72;4936467;29;20365;-58
2022/11/04 03:25:16;;;;;;;;;;;;;;;10.23;78.41;97052.25;4930235;29;20392;-58
2022/11/04 03:27:45;;;;;;;;;;;;;;;10.25;77.97;97056.56;4936232;29;19927;-58
2022/11/04 03:30:13;;;;;;;;;;;;;;;10.25;77.54;97049.22;4935294;29;20427;-57
2022/11/04 03:32:44;;;;;;;;;;;;;;;10.33;77.38;97058.41;4933775;29;19927;-58
2022/11/04 03:35:12;;;;;;;;;;;;;;;10.28;77.06;97051.28;4936371;29;19955;-57
2022/11/04 03:37:42;;;;;;;;;;;;;;;10.28;77.17;97056.69;4935223;29;20026;-57
2022/11/04 03:40:11;;;;;;;;;;;;;;;10.33;76.46;97056.47;4933096;29;20037;-58
2022/11/04 03:42:40;;;;;;;;;;;;;;;10.22;77.38;97058.75;4934761;29;19934;-58
2022/11/04 03:45:09;;;;;;;;;;;;;;;10.26;76.92;97050.78;4934456;29;19933;-57
2022/11/04 03:47:37;;;;;;;;;;;;;;;10.23;77.36;97057.69;4929913;29;19931;-58
2022/11/04 03:50:07;;;;;;;;;;;;;;;10.25;76.97;97051.13;4922304;29;19974;-58
2022/11/04 03:52:35;;;;;;;;;;;;;;;10.26;76.63;97055.44;4935293;29;19927;-58
2022/11/04 03:55:04;;;;;;;;;;;;;;;10.27;76.43;97059.72;4929499;29;19950;-58
2022/11/04 04:00:33;;;;;;;;;;;;;;;10.28;76.46;97062.13;4929271;29;20379;-58
2022/11/04 04:03:05;;;;;;;;;;;;;;;10.27;76.07;97054.28;4931703;29;19933;-57
2022/11/04 04:05:35;;;;;;;;;;;;;;;10.30;75.42;97049.00;4935190;29;20566;-58
2022/11/04 04:08:08;;;;;;;;;;;;;;;10.25;76.32;97051.91;4933882;29;20336;-58
2022/11/04 04:10:40;;;;;;;;;;;;;;;10.22;76.88;97041.69;4934976;29;19946;-58
2022/11/04 04:13:12;;;;;;;;;;;;;;;10.28;76.04;97047.72;4935174;29;20045;-57
2022/11/04 04:15:42;;;;;;;;;;;;;;;10.25;75.83;97056.56;4935088;29;19931;-57
2022/11/04 04:18:12;;;;;;;;;;;;;;;10.20;76.84;97074.59;4933416;29;19974;-58
2022/11/04 04:29:05;;;;;;;;;;;;;;;10.20;77.29;97071.09;4930207;29;20009;-58
2022/11/04 04:31:49;;;;;;;;;;;;;;;10.19;77.11;97064.06;4933423;29;19934;-57
2022/11/04 04:34:21;;;;;;;;;;;;;;;10.19;77.11;97056.72;4931771;29;19927;-57
2022/11/04 04:36:52;;;;;;;;;;;;;;;10.15;76.93;97066.63;4933777;29;19961;-57
2022/11/04 04:45:02;;;;;;;;;;;;;;;10.15;76.51;97046.84;4934585;29;19930;-58
2022/11/04 04:47:41;;;;;;;;;;;;;;;10.22;76.27;97049.81;4934942;29;19926;-58
2022/11/04 04:50:09;;;;;;;;;;;;;;;10.14;75.29;97043.34;4935697;29;20296;-57
2022/11/04 04:52:40;;;;;;;;;;;;;;;10.15;75.99;97030.56;4934984;29;19934;-58
2022/11/04 04:55:08;;;;;;;;;;;;;;;10.16;75.01;97015.84;4928714;29;19951;-58
2022/11/04 04:57:36;;;;;;;;;;;;;;;10.21;74.40;97018.38;4929935;29;19935;-58
2022/11/04 05:00:29;;;;;;;;;;;;;;;10.25;74.26;97010.41;4932505;29;19930;-57
2022/11/04 05:02:57;;;;;;;;;;;;;;;10.11;74.67;97022.28;4930651;29;19944;-57
2022/11/04 05:05:25;;;;;;;;;;;;;;;10.05;75.01;97022.81;4942765;29;19927;-57
2022/11/04 05:07:54;;;;;;;;;;;;;;;10.10;74.81;97020.69;4930558;29;20348;-58
2022/11/04 05:10:45;;;;;;;;;;;;;;;10.02;74.96;97026.97;4941761;28;19927;-58
2022/11/04 05:13:26;;;;;;;;;;;;;;;10.02;75.08;97032.41;4926452;29;19927;-57
2022/11/04 05:15:54;;;;;;;;;;;;;;;10.05;74.39;97017.38;4926950;29;19926;-57
2022/11/04 05:18:22;;;;;;;;;;;;;;;10.01;74.46;97005.59;4930051;29;19970;-57
2022/11/04 05:20:52;;;;;;;;;;;;;;;9.92;74.95;96995.59;4930416;29;20380;-57
2022/11/04 05:23:21;;;;;;;;;;;;;;;9.96;74.74;97001.97;4937248;29;19939;-57
2022/11/04 05:25:50;;;;;;;;;;;;;;;9.94;75.00;96998.75;4929193;29;19927;-57
2022/11/04 05:28:19;;;;;;;;;;;;;;;9.87;75.22;96989.56;4934313;29;19995;-58
2022/11/04 05:30:49;;;;;;;;;;;;;;;9.88;75.67;96988.44;4940060;29;19986;-57
2022/11/04 05:33:17;;;;;;;;;;;;;;;9.87;74.97;96987.66;4939277;29;19927;-57
2022/11/04 05:35:45;;;;;;;;;;;;;;;9.83;75.53;96991.34;4940569;29;19935;-58
2022/11/04 05:38:13;;;;;;;;;;;;;;;9.88;75.33;96989.22;4940977;29;19926;-57
2022/11/04 05:40:44;;;;;;;;;;;;;;;9.96;74.68;97007.38;4939842;29;19957;-58
2022/11/04 05:43:15;;;;;;;;;;;;;;;9.95;73.86;97018.53;4933318;29;19931;-58
2022/11/04 05:45:45;;;;;;;;;;;;;;;9.98;74.18;97034.19;4936463;29;19927;-57
2022/11/04 05:51:08;;;;;;;;;;;;;;;9.90;74.63;97054.00;4934815;29;19927;-58
2022/11/04 05:53:38;;;;;;;;;;;;;;;9.93;74.17;97027.03;4935566;29;19931;-58
2022/11/04 05:56:08;;;;;;;;;;;;;;;10.00;73.82;97004.78;4931811;29;19927;-58
2022/11/04 05:58:36;;;;;;;;;;;;;;;9.93;73.80;96999.88;4924898;29;20307;-57
2022/11/04 06:01:12;;;;;;;;;;;;;;;9.87;73.90;97003.13;4933793;29;19969;-58
2022/11/04 06:03:40;;;;;;;;;;;;;;;9.88;74.10;97021.78;4971083;28;19958;-58
2022/11/04 06:06:08;;;;;;;;;;;;;;;9.86;74.42;97043.03;4929137;29;20043;-58
2022/11/04 06:08:36;;;;;;;;;;;;;;;9.90;73.98;97056.72;4933379;29;20388;-58
2022/11/04 06:11:11;;;;;;;;;;;;;;;9.84;74.03;97064.25;4933273;29;20284;-58
2022/11/04 06:13:39;;;;;;;;;;;;;;;9.83;74.43;97067.28;4940685;29;20616;-58
2022/11/04 06:16:07;;;;;;;;;;;;;;;9.86;74.52;97070.16;4937624;29;19926;-57
2022/11/04 06:18:35;;;;;;;;;;;;;;;9.94;73.99;97079.38;4926932;29;20636;-58
2022/11/04 06:21:07;;;;;;;;;;;;;;;9.90;74.12;97092.00;4929454;29;20476;-58
2022/11/04 06:23:35;;;;;;;;;;;;;;;9.87;74.22;97100.78;4931558;29;19927;-58
2022/11/04 06:26:03;;;;;;;;;;;;;;;9.86;74.19;97101.94;4938272;29;19933;-57
2022/11/04 06:28:33;;;;;;;;;;;;;;;9.86;74.01;97108.13;4933350;29;19934;-58
2022/11/04 06:31:26;;;;;;;;;;;;;;;9.85;74.42;97113.88;4935860;29;19926;-58
2022/11/04 06:33:57;;;;;;;;;;;;;;;9.86;73.93;97121.72;4938776;29;19926;-58
2022/11/04 06:36:25;;;;;;;;;;;;;;;9.87;74.00;97134.16;4934941;29;20371;-58
2022/11/04 06:38:53;;;;;;;;;;;;;;;9.97;73.76;97133.00;4933676;29;19946;-58
2022/11/04 06:41:26;;;;;;;;;;;;;;;10.00;73.63;97136.97;4964412;28;20447;-58
2022/11/04 06:43:57;;;;;;;;;;;;;;;9.93;74.18;97140.19;4930152;28;19935;-58
2022/11/04 06:46:49;;;;;;;;;;;;;;;9.90;74.63;97133.47;4937102;29;19927;-58
2022/11/04 06:49:19;;;;;;;;;;;;;;;10.03;72.93;97133.59;4922148;29;19930;-57
2022/11/04 06:51:48;;;;;;;;;;;;;;;9.94;73.59;97128.22;4923023;29;19943;-58
2022/11/04 06:54:16;;;;;;;;;;;;;;;9.94;73.58;97118.16;4931004;29;19982;-58
2022/11/04 06:56:45;;;;;;;;;;;;;;;9.93;73.92;97113.84;4931370;29;20053;-58
2022/11/04 06:59:15;;;;;;;;;;;;;;;9.93;73.79;97116.56;4936323;29;20021;-58
2022/11/04 07:01:43;;;;;;;;;;;;;;;9.91;74.12;97124.25;4929123;29;19962;-58
2022/11/04 07:04:11;;;;;;;;;;;;;;;9.96;73.94;97131.41;4937272;29;19934;-58
2022/11/04 07:06:41;;;;;;;;;;;;;;;9.96;73.42;97131.41;4931368;29;19964;-58
2022/11/04 07:09:11;;;;;;;;;;;;;;;9.94;73.71;97126.28;4935432;29;19966;-58
2022/11/04 07:11:39;;;;;;;;;;;;;;;9.94;73.65;97125.50;4935950;29;19926;-58
2022/11/04 07:14:11;;;;;;;;;;;;;;;9.95;73.77;97127.88;4935609;29;20406;-58
2022/11/04 07:16:45;;;;;;;;;;;;;;;9.86;75.47;97120.91;4936235;29;19954;-58
2022/11/04 07:19:15;;;;;;;;;;;;;;;9.82;74.58;97104.47;4948794;29;19927;-58
2022/11/04 07:21:43;;;;;;;;;;;;;;;9.57;74.06;97094.53;4923791;29;20002;-58
2022/11/04 07:24:11;;;;;;;;;;;;;;;9.55;74.56;97085.94;4931989;29;19927;-58
2022/11/04 07:26:41;;;;;;;;;;;;;;;9.33;75.25;97086.97;4942757;29;19942;-58
2022/11/04 07:29:10;;;;;;;;;;;;;;;9.15;75.82;97072.63;4924345;29;19933;-58
2022/11/04 07:31:38;;;;;;;;;;;;;;;9.25;75.58;97068.78;4933526;29;20021;-58
2022/11/04 07:34:08;;;;;;;;;;;;;;;9.22;75.62;97064.81;4924672;29;19927;-58
2022/11/04 07:37:04;;;;;;;;;;;;;;;9.25;76.15;97085.03;4940071;29;20344;-58
2022/11/04 07:39:32;;;;;;;;;;;;;;;9.27;76.32;97099.88;4935260;29;19958;-58
2022/11/04 07:42:01;;;;;;;;;;;;;;;9.34;75.88;97094.75;4933318;29;20264;-58
2022/11/04 07:44:30;;;;;;;;;;;;;;;9.32;75.83;97080.75;4932785;29;19958;-58
2022/11/04 07:46:58;;;;;;;;;;;;;;;9.37;75.31;97074.31;4930032;29;20025;-58
2022/11/04 07:49:28;;;;;;;;;;;;;;;9.27;75.96;97072.78;4932526;29;19969;-58
2022/11/04 07:51:57;;;;;;;;;;;;;;;9.24;76.23;97084.25;4925697;29;20398;-58
2022/11/04 07:54:26;;;;;;;;;;;;;;;9.18;77.31;97072.00;4934376;29;19926;-58
2022/11/04 07:56:56;;;;;;;;;;;;;;;9.21;77.25;97076.75;4934833;29;20001;-58
2022/11/04 07:59:24;;;;;;;;;;;;;;;9.27;76.47;97071.97;4933851;29;19933;-58
2022/11/04 08:01:53;;;;;;;;;;;;;;;9.31;76.55;97068.28;4964317;28;19935;-58
2022/11/04 08:04:21;;;;;;;;;;;;;;;9.44;76.73;97066.50;4932514;29;19934;-58
2022/11/04 08:06:50;;;;;;;;;;;;;;;9.54;76.35;97076.22;4930072;29;20013;-58
2022/11/04 08:09:44;;;;;;;;;;;;;;;9.57;75.89;97089.09;4938982;28;19978;-58
2022/11/04 08:12:13;;;;;;;;;;;;;;;9.58;76.14;97098.81;4933058;29;19933;-58
2022/11/04 08:14:42;;;;;;;;;;;;;;;9.60;76.26;97102.81;4931607;29;20021;-59
2022/11/04 08:17:10;;;;;;;;;;;;;;;9.69;75.33;97116.31;4931767;29;20423;-58
2022/11/04 08:20:04;;;;;;;;;;;;;;;9.76;74.53;97121.28;4931309;29;19927;-57
2022/11/04 08:22:38;;;;;;;;;;;;;;;9.79;73.97;97126.81;4930146;29;19926;-57
2022/11/04 08:25:06;;;;;;;;;;;;;;;9.83;73.65;97133.19;4930776;29;19927;-57
2022/11/04 08:27:43;;;;;;;;;;;;;;;9.90;73.21;97138.13;4933902;29;19982;-58
2022/11/04 08:30:11;;;;;;;;;;;;;;;9.85;73.22;97147.22;4932054;29;19934;-58
2022/11/04 08:32:39;;;;;;;;;;;;;;;9.83;73.38;97162.25;4930837;29;19927;-58
2022/11/04 08:35:09;;;;;;;;;;;;;;;9.86;73.14;97165.13;4935090;29;19927;-58
2022/11/04 08:37:39;;;;;;;;;;;;;;;9.79;73.45;97167.50;4933951;29;20022;-57
2022/11/04 08:40:08;;;;;;;;;;;;;;;9.91;72.29;97166.84;4936809;28;20741;-58
2022/11/04 08:42:36;;;;;;;;;;;;;;;9.85;72.15;97171.63;4931481;29;19927;-57
2022/11/04 08:45:06;;;;;;;;;;;;;;;9.80;72.27;97171.84;4942080;28;19927;-57
2022/11/04 08:47:34;;;;;;;;;;;;;;;9.77;72.38;97186.03;4931596;29;19990;-57
2022/11/04 08:50:02;;;;;;;;;;;;;;;9.76;72.13;97181.75;4948556;28;19935;-57
2022/11/04 08:52:31;;;;;;;;;;;;;;;9.77;71.84;97182.53;4938507;29;20000;-58
2022/11/04 08:55:04;;;;;;;;;;;;;;;9.71;71.78;97184.63;4937285;29;19934;-58
2022/11/04 08:57:32;;;;;;;;;;;;;;;9.68;72.21;97177.91;4930245;29;19934;-57
2022/11/04 09:00:00;;;;;;;;;;;;;;;9.69;72.25;97170.56;4935828;29;19965;-58
2022/11/04 09:02:28;;;;;;;;;;;;;;;9.67;72.48;97172.81;4925059;29;20364;-57
2022/11/04 09:04:57;;;;;;;;;;;;;;;9.76;71.89;97176.31;4935197;29;20384;-57
2022/11/04 09:07:25;;;;;;;;;;;;;;;9.69;72.40;97182.25;4933335;29;20021;-57
2022/11/04 09:09:53;;;;;;;;;;;;;;;9.62;72.60;97183.84;4934163;29;20368;-57
2022/11/04 09:12:23;;;;;;;;;;;;;;;9.66;72.15;97188.31;4921276;29;19974;-57
2022/11/04 09:14:51;;;;;;;;;;;;;;;9.68;72.23;97196.09;4936823;29;19954;-57
2022/11/04 09:17:19;;;;;;;;;;;;;;;9.73;72.07;97193.22;4946474;29;19930;-57
2022/11/04 09:19:49;;;;;;;;;;;;;;;9.71;72.42;97188.13;4935810;29;19927;-57
2022/11/04 09:22:17;;;;;;;;;;;;;;;9.78;71.24;97165.13;4932355;29;20573;-57
2022/11/04 09:24:47;;;;;;;;;;;;;;;9.80;70.44;97161.00;4937057;28;20017;-57
2022/11/04 09:27:15;;;;;;;;;;;;;;;9.69;70.81;97140.75;4929255;29;19988;-59
2022/11/04 09:29:46;;;;;;;;;;;;;;;9.68;71.38;97136.44;4936222;29;19934;-57
2022/11/04 09:32:14;;;;;;;;;;;;;;;9.63;71.60;97128.47;4935457;29;19926;-58
2022/11/04 09:34:44;;;;;;;;;;;;;;;9.68;71.37;97128.31;4936591;28;19934;-58
2022/11/04 09:37:12;;;;;;;;;;;;;;;9.66;71.74;97127.84;4958092;28;20021;-57
2022/11/04 09:39:44;;;;;;;;;;;;;;;9.60;71.63;97126.44;4938045;29;20411;-58
2022/11/04 09:42:42;;;;;;;;;;;;;;;9.60;71.89;97134.56;4939167;29;19934;-58
2022/11/04 09:45:12;;;;;;;;;;;;;;;9.57;71.53;97133.28;4963176;28;20013;-58
2022/11/04 09:47:49;;;;;;;;;;;;;;;9.61;71.29;97131.53;4956913;28;19982;-58
2022/11/04 09:50:18;;;;;;;;;;;;;;;9.57;71.70;97125.16;4936128;29;19926;-57
2022/11/04 09:52:48;;;;;;;;;;;;;;;9.57;71.18;97129.78;4934084;28;20443;-57
2022/11/04 09:55:17;;;;;;;;;;;;;;;9.61;71.42;97125.31;4935648;29;19927;-58
2022/11/04 09:57:46;;;;;;;;;;;;;;;9.67;70.75;97126.72;4937241;28;20384;-58
2022/11/04 10:00:17;;;;;;;;;;;;;;;9.67;70.66;97132.13;4929593;29;19942;-58
2022/11/04 10:02:48;;;;;;;;;;;;;;;9.69;70.65;97138.84;4932071;29;19927;-58
2022/11/04 10:05:19;;;;;;;;;;;;;;;9.74;70.58;97129.72;4934029;29;19939;-57
2022/11/04 10:07:53;;;;;;;;;;;;;;;9.77;70.54;97133.72;4964698;28;19989;-58
2022/11/04 10:10:23;;;;;;;;;;;;;;;9.75;70.56;97131.31;4932963;29;19982;-58
2022/11/04 10:13:02;;;;;;;;;;;;;;;9.76;70.81;97124.78;4933219;29;19933;-57
2022/11/04 10:15:48;;;;;;;;;;;;;;;9.77;70.80;97118.22;4921163;29;20372;-57
2022/11/04 10:18:35;;;;;;;;;;;;;;;9.88;70.45;97116.75;4929239;29;19935;-57
2022/11/04 10:21:09;;;;;;;;;;;;;;;9.95;69.80;97118.94;4935394;29;19982;-58
2022/11/04 10:23:38;;;;;;;;;;;;;;;10.07;69.11;97104.69;4936946;29;19938;-58
2022/11/04 10:26:09;;;;;;;;;;;;;;;9.98;69.45;97105.53;4935314;29;19933;-58
2022/11/04 10:28:40;;;;;;;;;;;;;;;10.09;68.65;97094.31;4933758;29;19934;-58
2022/11/04 10:31:12;;;;;;;;;;;;;;;10.01;69.27;97095.13;4937258;29;19927;-58
2022/11/04 10:33:41;;;;;;;;;;;;;;;9.94;69.44;97099.16;4934232;29;19982;-58
2022/11/04 10:36:12;;;;;;;;;;;;;;;9.92;69.08;97101.41;4934477;29;19927;-58
2022/11/04 10:38:41;;;;;;;;;;;;;;;9.91;69.60;97099.03;4936844;29;19931;-57
2022/11/04 10:41:16;;;;;;;;;;;;;;;9.97;69.79;97101.22;4941796;28;19927;-58
2022/11/04 10:43:45;;;;;;;;;;;;;;;10.11;69.43;97109.13;4934902;29;19953;-58
2022/11/04 10:46:20;;;;;;;;;;;;;;;10.15;68.83;97101.91;4933965;29;19934;-58
2022/11/04 10:48:49;;;;;;;;;;;;;;;10.19;68.04;97104.78;4967137;28;19977;-58
2022/11/04 10:51:21;;;;;;;;;;;;;;;10.23;68.08;97108.44;4934434;29;19933;-57
2022/11/04 10:53:50;;;;;;;;;;;;;;;10.35;67.42;97113.97;4933382;29;19974;-58
2022/11/04 10:56:20;;;;;;;;;;;;;;;10.33;68.18;97118.13;4963245;28;19930;-57
2022/11/04 10:58:48;;;;;;;;;;;;;;;10.34;68.39;97115.09;4936028;29;20034;-58
2022/11/04 11:01:23;;;;;;;;;;;;;;;10.34;67.46;97112.41;4932515;29;19982;-57
2022/11/04 11:03:51;;;;;;;;;;;;;;;10.39;67.88;97123.06;4934386;29;19974;-58
2022/11/04 11:06:23;;;;;;;;;;;;;;;10.38;67.74;97121.44;4934380;29;19994;-57
2022/11/04 11:08:52;;;;;;;;;;;;;;;10.52;67.16;97126.66;4965083;28;19997;-58
2022/11/04 11:11:34;;;;;;;;;;;;;;;10.45;67.22;97124.47;4933315;29;20308;-57
2022/11/04 11:14:03;;;;;;;;;;;;;;;10.48;67.59;97112.91;4936897;29;19927;-58
2022/11/04 11:16:56;;;;;;;;;;;;;;;10.45;67.67;97105.44;4934090;29;20025;-57
2022/11/04 11:19:50;;;;;;;;;;;;;;;10.48;67.70;97106.69;4924181;29;20021;-57
2022/11/04 11:22:30;;;;;;;;;;;;;;;10.45;67.67;97105.44;4954367;28;19927;-57
2022/11/04 11:28:09;;;;;;;;;;;;;;;10.48;67.16;97085.75;4932481;29;19927;-58
2022/11/04 11:30:54;;;;;;;;;;;;;;;10.58;66.94;97076.44;4932684;29;20022;-58
2022/11/04 11:33:24;;;;;;;;;;;;;;;10.67;66.50;97074.44;4933159;29;19930;-57
2022/11/04 11:35:54;;;;;;;;;;;;;;;10.67;66.40;97070.94;4928494;29;19927;-59
2022/11/04 11:38:26;;;;;;;;;;;;;;;10.74;66.04;97079.34;4962930;28;19962;-58
2022/11/04 11:41:02;;;;;;;;;;;;;;;10.65;66.78;97087.59;4933967;29;19927;-58
2022/11/04 11:43:51;;;;;;;;;;;;;;;10.68;66.75;97080.69;4931803;29;19926;-59
2022/11/04 11:46:21;;;;;;;;;;;;;;;10.77;66.02;97075.97;4932261;29;19931;-58
2022/11/04 11:48:51;;;;;;;;;;;;;;;10.75;65.65;97083.66;4965994;28;19934;-58
2022/11/04 11:51:23;;;;;;;;;;;;;;;10.73;66.30;97091.34;4922404;29;19977;-59
2022/11/04 11:54:26;;;;;;;;;;;;;;;10.66;66.18;97093.81;4932020;29;19935;-58
2022/11/04 11:56:54;;;;;;;;;;;;;;;10.65;66.28;97074.00;4933795;29;20017;-58
2022/11/04 11:59:42;;;;;;;;;;;;;;;10.68;66.61;97069.81;4926314;29;19978;-58
2022/11/04 12:02:41;;;;;;;;;;;;;;;10.62;66.55;97063.00;4933335;29;20021;-58
2022/11/04 12:05:10;;;;;;;;;;;;;;;10.67;66.47;97062.78;4940678;29;19927;-58
2022/11/04 12:08:00;;;;;;;;;;;;;;;10.67;66.77;97060.88;4934846;29;19927;-57
2022/11/04 12:10:51;;;;;;;;;;;;;;;10.70;66.46;97070.25;4932624;29;19926;-57
2022/11/04 12:13:21;;;;;;;;;;;;;;;10.79;67.06;97076.44;4932390;29;19930;-58
2022/11/04 12:15:59;;;;;;;;;;;;;;;10.82;66.10;97074.97;4933347;29;19959;-58
2022/11/04 12:21:36;;;;;;;;;;;;;;;10.92;65.52;97086.25;4932764;29;19931;-57
2022/11/04 12:24:07;;;;;;;;;;;;;;;10.86;64.86;97078.59;4935568;29;19995;-57
2022/11/04 12:26:36;;;;;;;;;;;;;;;10.87;65.21;97091.88;4933873;29;19927;-58
2022/11/04 12:29:20;;;;;;;;;;;;;;;10.75;65.39;97091.78;4928182;29;20368;-58
2022/11/04 12:31:51;;;;;;;;;;;;;;;10.77;65.88;97088.75;4935405;29;19927;-58
2022/11/04 12:34:27;;;;;;;;;;;;;;;10.78;66.30;97090.34;4933309;29;19933;-57
2022/11/04 12:36:59;;;;;;;;;;;;;;;10.85;65.75;97090.59;4932883;29;19931;-58
2022/11/04 12:39:32;;;;;;;;;;;;;;;10.88;64.89;97093.47;4934468;29;19926;-59
2022/11/04 12:42:04;;;;;;;;;;;;;;;10.81;65.29;97100.53;4934741;29;19926;-58
2022/11/04 12:44:49;;;;;;;;;;;;;;;10.79;65.31;97098.16;4931907;29;19927;-57
2022/11/04 12:47:22;;;;;;;;;;;;;;;10.83;64.87;97103.72;4928836;29;19935;-57
2022/11/04 12:49:58;;;;;;;;;;;;;;;10.77;65.00;97095.00;4926843;29;19946;-58
2022/11/04 12:52:30;;;;;;;;;;;;;;;10.91;64.64;97100.13;4921870;29;20421;-57
2022/11/04 12:55:06;;;;;;;;;;;;;;;10.86;64.70;97106.56;4923345;29;20332;-57
2022/11/04 12:57:37;;;;;;;;;;;;;;;10.77;64.82;97108.56;4924092;29;19949;-57
2022/11/04 13:00:08;;;;;;;;;;;;;;;10.75;65.39;97116.25;4922691;29;20384;-57
2022/11/04 13:02:39;;;;;;;;;;;;;;;10.83;65.16;97120.03;4963915;28;20303;-58
2022/11/04 13:05:09;;;;;;;;;;;;;;;10.83;65.06;97118.13;4928629;29;19945;-58
2022/11/04 13:07:39;;;;;;;;;;;;;;;10.77;64.82;97121.38;4938753;28;19931;-58
2022/11/04 13:10:09;;;;;;;;;;;;;;;10.75;64.77;97118.97;4929167;29;19935;-57
2022/11/04 13:12:40;;;;;;;;;;;;;;;10.74;64.07;97114.66;4922912;29;19938;-58
2022/11/04 13:15:13;;;;;;;;;;;;;;;10.71;64.79;97107.97;4930238;29;20388;-57
2022/11/04 13:17:41;;;;;;;;;;;;;;;10.81;64.12;97119.56;4930206;29;19928;-58
2022/11/04 13:20:14;;;;;;;;;;;;;;;10.69;64.38;97112.13;4932538;29;19969;-57
2022/11/04 13:22:44;;;;;;;;;;;;;;;10.70;64.64;97108.28;4931795;29;19966;-58
2022/11/04 13:25:37;;;;;;;;;;;;;;;10.68;64.68;97107.84;4932344;29;19927;-58
2022/11/04 13:28:08;;;;;;;;;;;;;;;10.74;64.69;97101.06;4932747;29;19931;-58
2022/11/04 13:30:38;;;;;;;;;;;;;;;10.69;65.17;97098.56;4929903;29;20313;-58
2022/11/04 13:33:08;;;;;;;;;;;;;;;10.72;65.11;97104.13;4929531;29;19930;-58
2022/11/04 13:35:40;;;;;;;;;;;;;;;10.68;65.28;97099.69;4933415;29;20598;-57
2022/11/04 13:38:11;;;;;;;;;;;;;;;10.83;64.99;97104.53;4932050;29;19931;-57
2022/11/04 13:40:43;;;;;;;;;;;;;;;10.81;64.49;97098.63;4926509;29;20036;-58
2022/11/04 13:46:22;;;;;;;;;;;;;;;10.71;65.13;97099.03;4930388;29;19934;-57
2022/11/04 13:48:53;;;;;;;;;;;;;;;10.68;64.74;97091.53;4928727;29;19933;-58
2022/11/04 13:51:21;;;;;;;;;;;;;;;10.68;65.08;97096.97;4935967;29;19935;-57
2022/11/04 13:56:42;;;;;;;;;;;;;;;10.68;64.68;97107.84;4929517;29;20026;-58
2022/11/04 13:59:22;;;;;;;;;;;;;;;10.68;65.14;97113.28;4927129;29;19937;-58
2022/11/04 14:01:54;;;;;;;;;;;;;;;10.67;64.89;97119.84;4930851;29;19930;-58
2022/11/04 14:04:28;;;;;;;;;;;;;;;10.60;65.18;97122.25;4934762;29;20381;-58
2022/11/04 14:06:57;;;;;;;;;;;;;;;10.59;65.37;97131.53;4960330;28;19953;-58